createdAt,value
2022-12-14T00:02:33.517Z,5.75
2022-12-14T00:07:38.109Z,4.00
2022-12-14T00:12:42.808Z,8.00
2022-12-14T00:17:47.454Z,4.25
2022-12-14T00:22:52.076Z,3.00
2022-12-14T00:27:57.142Z,8.25
2022-12-14T00:33:01.599Z,6.75
2022-12-14T00:38:06.105Z,6.50
2022-12-14T00:43:10.576Z,7.00
2022-12-14T00:48:15.473Z,4.75
2022-12-14T00:53:20.398Z,6.25
2022-12-14T00:58:26.482Z,5.75
2022-12-14T01:03:31.848Z,5.25
2022-12-14T01:08:37.748Z,7.50
2022-12-14T01:13:42.912Z,6.25
2022-12-14T01:18:46.929Z,6.25
2022-12-14T01:23:55.697Z,8.00
2022-12-14T01:29:00.981Z,4.50
2022-12-14T01:34:05.636Z,4.00
2022-12-14T01:39:17.475Z,3.75
2022-12-14T01:44:21.943Z,5.00
2022-12-14T01:49:32.377Z,2.50
2022-12-14T01:54:39.697Z,3.25
2022-12-14T01:59:46.558Z,7.00
2022-12-14T02:04:55.427Z,4.00
2022-12-14T02:10:04.164Z,4.25
2022-12-14T02:15:09.346Z,8.00
2022-12-14T02:20:15.079Z,1.75
2022-12-14T02:25:35.411Z,4.00
2022-12-14T02:30:41.563Z,4.25
2022-12-14T02:36:01.102Z,4.00
2022-12-14T02:41:08.616Z,2.25
2022-12-14T02:46:22.301Z,3.00
2022-12-14T02:51:29.827Z,2.00
2022-12-14T02:56:46.914Z,2.75
2022-12-14T03:01:52.623Z,3.50
2022-12-14T03:07:17.653Z,3.00
2022-12-14T03:12:23.720Z,2.75
2022-12-14T03:17:30.013Z,2.25
2022-12-14T03:22:42.029Z,1.75
2022-12-14T03:27:51.232Z,2.00
2022-12-14T03:32:56.947Z,3.25
2022-12-14T03:38:01.524Z,3.50
2022-12-14T03:43:17.993Z,4.00
2022-12-14T03:48:42.251Z,3.50
2022-12-14T03:53:53.316Z,3.00
2022-12-14T03:59:03.554Z,6.00
2022-12-14T04:04:19.518Z,3.00
2022-12-14T04:09:35.817Z,2.50
2022-12-14T04:15:02.982Z,2.00
2022-12-14T04:20:10.134Z,2.25
2022-12-14T04:25:36.928Z,2.75
2022-12-14T04:30:42.376Z,3.00
2022-12-14T04:35:46.732Z,2.75
2022-12-14T04:40:53.898Z,3.00
2022-12-14T04:46:01.210Z,2.50
2022-12-14T04:51:17.720Z,2.00
2022-12-14T04:56:29.574Z,2.00
2022-12-14T05:01:37.000Z,3.00
2022-12-14T05:06:54.144Z,4.75
2022-12-14T05:12:18.731Z,2.00
2022-12-14T05:17:23.200Z,3.25
2022-12-14T05:22:27.802Z,4.00
2022-12-14T05:27:34.083Z,3.50
2022-12-14T05:32:38.694Z,3.00
2022-12-14T05:37:43.963Z,5.25
2022-12-14T05:42:53.903Z,4.25
2022-12-14T05:48:00.105Z,5.00
2022-12-14T05:53:04.789Z,4.25
2022-12-14T05:58:09.495Z,4.75
2022-12-14T06:03:14.070Z,4.00
2022-12-14T06:08:18.911Z,4.75
2022-12-14T06:13:24.090Z,7.00
2022-12-14T06:18:29.805Z,5.25
2022-12-14T06:23:34.561Z,5.00
2022-12-14T06:28:39.608Z,6.00
2022-12-14T06:33:44.591Z,6.00
2022-12-14T06:38:50.056Z,4.75
2022-12-14T06:43:55.226Z,7.50
2022-12-14T06:48:59.902Z,4.25
2022-12-14T06:54:05.825Z,3.75
2022-12-14T06:59:11.025Z,3.00
2022-12-14T07:04:17.895Z,6.25
2022-12-14T07:09:22.761Z,5.25
2022-12-14T07:14:26.964Z,3.50
2022-12-14T07:19:31.618Z,5.50
2022-12-14T07:24:36.363Z,3.50
2022-12-14T07:29:41.174Z,4.75
2022-12-14T07:34:45.869Z,6.00
2022-12-14T07:39:50.485Z,4.75
2022-12-14T07:44:54.869Z,5.25
2022-12-14T07:49:59.744Z,6.00
2022-12-14T07:55:04.911Z,7.00
2022-12-14T08:00:10.056Z,5.75
2022-12-14T08:05:17.822Z,6.00
2022-12-14T08:10:22.403Z,3.25
2022-12-14T08:15:26.600Z,4.50
2022-12-14T08:20:31.439Z,5.00
2022-12-14T08:25:36.091Z,5.00
2022-12-14T08:30:41.415Z,4.75
2022-12-14T08:35:46.669Z,11.75
2022-12-14T08:40:51.310Z,17.50
2022-12-14T08:45:56.658Z,17.75
2022-12-14T08:51:04.751Z,19.25
2022-12-14T08:56:15.094Z,19.75
2022-12-14T09:01:33.443Z,21.00
2022-12-14T09:06:40.723Z,21.50
2022-12-14T09:11:45.953Z,22.00
2022-12-14T09:16:50.094Z,25.00
2022-12-14T09:21:55.105Z,25.25
2022-12-14T09:27:02.855Z,20.25
2022-12-14T09:32:07.493Z,25.50
2022-12-14T09:37:12.415Z,28.00
2022-12-14T09:42:19.757Z,18.50
2022-12-14T09:47:29.569Z,21.00
2022-12-14T09:52:52.586Z,21.50
2022-12-14T09:58:21.439Z,22.75
2022-12-14T10:03:51.016Z,21.25
2022-12-14T10:09:01.267Z,24.25
2022-12-14T10:14:15.610Z,24.25
2022-12-14T10:19:35.451Z,23.50
2022-12-14T10:24:43.984Z,19.25
2022-12-14T10:29:51.067Z,15.75
2022-12-14T10:34:55.605Z,20.25
2022-12-14T10:40:12.429Z,14.75
2022-12-14T10:51:01.370Z,19.75
2022-12-14T10:56:10.237Z,17.00
2022-12-14T11:01:16.952Z,11.75
2022-12-14T11:06:22.132Z,14.75
2022-12-14T11:11:27.724Z,13.50
2022-12-14T11:16:37.511Z,13.25
2022-12-14T11:21:42.148Z,11.75
2022-12-14T11:26:47.163Z,16.75
2022-12-14T11:31:55.376Z,15.50
2022-12-14T11:37:13.146Z,12.75
2022-12-14T11:42:19.552Z,17.75
2022-12-14T11:47:26.731Z,15.00
2022-12-14T11:52:40.382Z,12.00
2022-12-14T11:57:49.083Z,16.75
2022-12-14T12:03:02.676Z,15.00
2022-12-14T12:08:08.873Z,12.00
2022-12-14T12:13:31.175Z,13.00
2022-12-14T12:18:46.204Z,14.50
2022-12-14T12:24:00.226Z,9.75
2022-12-14T12:29:08.323Z,10.50
2022-12-14T12:34:19.028Z,10.00
2022-12-14T12:39:26.035Z,8.75
2022-12-14T12:44:49.697Z,15.75
2022-12-14T12:49:54.400Z,13.00
2022-12-14T12:55:02.160Z,15.50
2022-12-14T13:00:08.376Z,12.50
2022-12-14T13:05:45.201Z,14.50
2022-12-14T13:11:02.390Z,19.00
2022-12-14T13:16:12.845Z,10.75
2022-12-14T13:21:20.686Z,11.25
2022-12-14T13:26:57.863Z,15.00
2022-12-14T13:32:21.953Z,14.25
2022-12-14T13:37:32.132Z,11.25
2022-12-14T13:42:45.774Z,14.75
2022-12-14T13:47:55.369Z,12.00
2022-12-14T13:53:03.851Z,14.00
2022-12-14T13:58:12.914Z,14.50
2022-12-14T14:03:35.897Z,13.75
2022-12-14T14:08:43.101Z,14.75
2022-12-14T14:13:51.879Z,15.25
2022-12-14T14:19:15.915Z,13.25
2022-12-14T14:24:27.940Z,12.00
2022-12-14T14:29:33.608Z,16.75
2022-12-14T14:34:44.292Z,15.00
2022-12-14T14:40:04.903Z,16.50
2022-12-14T14:45:29.337Z,14.00
2022-12-14T14:50:40.327Z,14.75
2022-12-14T14:55:54.343Z,22.25
2022-12-14T15:01:05.258Z,29.50
2022-12-14T15:06:16.778Z,37.00
2022-12-14T15:11:23.294Z,38.25
2022-12-14T15:16:32.752Z,39.50
2022-12-14T15:21:39.806Z,41.00
2022-12-14T15:26:46.138Z,38.25
2022-12-14T15:31:59.508Z,39.25
2022-12-14T15:37:04.958Z,37.00
2022-12-14T15:42:16.789Z,40.00
2022-12-14T15:47:39.188Z,33.00
2022-12-14T15:52:45.189Z,34.25
2022-12-14T15:57:50.793Z,33.00
2022-12-14T16:02:55.764Z,31.50
2022-12-14T16:08:00.551Z,27.50
2022-12-14T16:13:08.620Z,29.25
2022-12-14T16:18:13.897Z,39.25
2022-12-14T16:23:18.633Z,28.00
2022-12-14T16:28:31.132Z,28.25
2022-12-14T16:33:37.052Z,26.75
2022-12-14T16:38:57.331Z,25.75
2022-12-14T16:44:02.978Z,21.50
2022-12-14T16:49:24.674Z,19.00
2022-12-14T16:54:33.653Z,25.25
2022-12-14T16:59:38.292Z,20.75
2022-12-14T17:04:44.072Z,21.00
2022-12-14T17:09:48.375Z,22.25
2022-12-14T17:14:52.862Z,18.50
2022-12-14T17:19:58.759Z,16.75
2022-12-14T17:25:03.750Z,18.75
2022-12-14T17:30:09.167Z,19.00
2022-12-14T17:35:17.892Z,22.25
2022-12-14T17:40:22.823Z,14.25
2022-12-14T17:45:28.779Z,19.00
2022-12-14T17:50:33.516Z,14.75
2022-12-14T17:55:37.729Z,19.50
2022-12-14T18:00:59.981Z,20.25
2022-12-14T18:06:05.853Z,16.25
2022-12-14T18:11:13.977Z,13.50
2022-12-14T18:16:19.676Z,14.00
2022-12-14T18:21:29.315Z,12.00
2022-12-14T18:26:33.872Z,11.25
2022-12-14T18:31:40.101Z,15.25
2022-12-14T18:36:44.713Z,15.50
2022-12-14T18:41:48.853Z,14.00
2022-12-14T18:46:53.218Z,13.00
2022-12-14T18:51:58.207Z,13.25
2022-12-14T18:57:02.842Z,11.75
2022-12-14T19:02:07.851Z,13.50
2022-12-14T19:07:12.427Z,16.50
2022-12-14T19:12:16.709Z,13.00
2022-12-14T19:17:21.931Z,15.75
2022-12-14T19:22:28.479Z,15.25
2022-12-14T19:28:11.504Z,13.00
2022-12-14T19:32:59.969Z,15.25
2022-12-14T19:38:04.640Z,12.75
2022-12-14T19:43:08.862Z,12.25
2022-12-14T19:48:13.568Z,16.00
2022-12-14T19:53:23.224Z,11.75
2022-12-14T19:58:32.062Z,12.75
2022-12-14T20:03:37.587Z,10.75
2022-12-14T20:08:42.598Z,8.00
2022-12-14T20:13:49.414Z,10.00
2022-12-14T20:18:58.941Z,11.25
2022-12-14T20:24:03.730Z,11.50
2022-12-14T20:29:08.542Z,7.00
2022-12-14T20:34:13.006Z,9.00
2022-12-14T20:39:17.486Z,9.00
2022-12-14T20:44:22.149Z,6.00
2022-12-14T20:49:31.198Z,7.50
2022-12-14T20:54:35.728Z,6.75
2022-12-14T20:59:40.345Z,5.00
2022-12-14T21:04:44.900Z,5.50
2022-12-14T21:09:48.942Z,5.75
2022-12-14T21:14:57.433Z,4.00
2022-12-14T21:20:01.582Z,4.75
2022-12-14T21:25:06.665Z,5.00
2022-12-14T21:30:12.603Z,4.00
2022-12-14T21:35:18.939Z,4.50
2022-12-14T21:40:41.350Z,2.00
2022-12-14T21:45:46.225Z,3.50
2022-12-14T21:50:50.842Z,4.50
2022-12-14T21:56:15.126Z,2.50
2022-12-14T22:01:20.148Z,2.00
2022-12-14T22:06:24.670Z,3.00
2022-12-14T22:11:29.762Z,1.00
2022-12-14T22:16:35.193Z,2.75
2022-12-14T22:21:42.832Z,1.25
2022-12-14T22:26:47.393Z,1.00
2022-12-14T22:31:52.712Z,1.00
2022-12-14T22:36:57.292Z,1.00
2022-12-14T22:42:02.256Z,1.00
2022-12-14T22:47:07.017Z,1.00
2022-12-14T22:52:11.684Z,1.75
2022-12-14T22:57:19.223Z,0.75
2022-12-14T23:02:24.915Z,0.00
2022-12-14T23:07:29.780Z,2.00
2022-12-14T23:12:52.366Z,1.00
2022-12-14T23:18:20.344Z,1.25
2022-12-14T23:23:43.267Z,0.75
2022-12-14T23:29:05.923Z,2.50
2022-12-14T23:34:28.860Z,1.00
2022-12-14T23:39:51.765Z,1.00
2022-12-14T23:45:14.362Z,0.00
2022-12-14T23:50:37.243Z,0.25
2022-12-14T23:55:59.846Z,1.00
